sensor_id;sensor_type;location;lat;lon;timestamp;pressure;altitude;pressure_sealevel;temperature;humidity
85386;BME280;75792;42.686;23.298;2024-03-02T00:00:11;94113.75;;;8.04;77.18
85386;BME280;75792;42.686;23.298;2024-03-02T00:02:42;94119.47;;;8.06;77.17
85386;BME280;75792;42.686;23.298;2024-03-02T00:05:07;94125.19;;;8.08;76.89
85386;BME280;75792;42.686;23.298;2024-03-02T00:07:36;94129.94;;;8.06;76.41
85386;BME280;75792;42.686;23.298;2024-03-02T00:10:08;94131.22;;;8.08;76.00
85386;BME280;75792;42.686;23.298;2024-03-02T00:12:35;94122.69;;;8.03;76.12
85386;BME280;75792;42.686;23.298;2024-03-02T00:15:01;94127.72;;;8.13;76.85
85386;BME280;75792;42.686;23.298;2024-03-02T00:17:29;94124.22;;;8.04;76.03
85386;BME280;75792;42.686;23.298;2024-03-02T00:19:54;94128.22;;;8.01;76.96
85386;BME280;75792;42.686;23.298;2024-03-02T00:22:20;94130.44;;;8.08;76.86
85386;BME280;75792;42.686;23.298;2024-03-02T00:24:45;94134.47;;;8.14;76.28
85386;BME280;75792;42.686;23.298;2024-03-02T00:27:14;94128.03;;;8.20;75.82
85386;BME280;75792;42.686;23.298;2024-03-02T00:29:40;94135.44;;;8.18;75.72
85386;BME280;75792;42.686;23.298;2024-03-02T00:32:16;94113.88;;;8.21;75.64
85386;BME280;75792;42.686;23.298;2024-03-02T00:34:42;94121.44;;;8.23;75.48
85386;BME280;75792;42.686;23.298;2024-03-02T00:37:08;94118.75;;;8.14;76.21
85386;BME280;75792;42.686;23.298;2024-03-02T00:39:33;94115.66;;;8.12;76.33
85386;BME280;75792;42.686;23.298;2024-03-02T00:41:59;94117.22;;;8.13;75.70
85386;BME280;75792;42.686;23.298;2024-03-02T00:44:25;94122.03;;;8.20;75.58
85386;BME280;75792;42.686;23.298;2024-03-02T00:46:52;94114.72;;;8.08;76.48
85386;BME280;75792;42.686;23.298;2024-03-02T00:49:21;94111.25;;;7.99;76.52
85386;BME280;75792;42.686;23.298;2024-03-02T00:51:50;94113.53;;;8.14;76.31
85386;BME280;75792;42.686;23.298;2024-03-02T00:54:19;94106.75;;;8.13;76.33
85386;BME280;75792;42.686;23.298;2024-03-02T00:56:44;94104.00;;;8.18;76.25
85386;BME280;75792;42.686;23.298;2024-03-02T00:59:10;94100.91;;;8.16;75.59
85386;BME280;75792;42.686;23.298;2024-03-02T01:01:36;94108.66;;;8.21;74.50
85386;BME280;75792;42.686;23.298;2024-03-02T01:04:02;94117.22;;;8.35;75.48
85386;BME280;75792;42.686;23.298;2024-03-02T01:06:27;94109.19;;;8.32;75.16
85386;BME280;75792;42.686;23.298;2024-03-02T01:08:53;94120.91;;;8.34;74.56
85386;BME280;75792;42.686;23.298;2024-03-02T01:11:19;94116.94;;;8.37;73.94
85386;BME280;75792;42.686;23.298;2024-03-02T01:13:47;94117.94;;;8.27;75.25
85386;BME280;75792;42.686;23.298;2024-03-02T01:16:12;94110.91;;;8.36;74.39
85386;BME280;75792;42.686;23.298;2024-03-02T01:18:38;94103.50;;;8.38;75.28
85386;BME280;75792;42.686;23.298;2024-03-02T01:21:03;94102.97;;;8.28;74.33
85386;BME280;75792;42.686;23.298;2024-03-02T01:23:29;94091.50;;;8.37;75.15
85386;BME280;75792;42.686;23.298;2024-03-02T01:25:54;94078.38;;;8.37;74.44
85386;BME280;75792;42.686;23.298;2024-03-02T01:28:20;94086.16;;;8.43;74.95
85386;BME280;75792;42.686;23.298;2024-03-02T01:30:46;94076.75;;;8.42;74.34
85386;BME280;75792;42.686;23.298;2024-03-02T01:33:12;94085.06;;;8.44;74.80
85386;BME280;75792;42.686;23.298;2024-03-02T01:35:37;94081.59;;;8.34;74.43
85386;BME280;75792;42.686;23.298;2024-03-02T01:38:03;94080.22;;;8.37;75.44
85386;BME280;75792;42.686;23.298;2024-03-02T01:40:31;94081.50;;;8.40;75.50
85386;BME280;75792;42.686;23.298;2024-03-02T01:42:57;94090.25;;;8.35;75.17
85386;BME280;75792;42.686;23.298;2024-03-02T01:45:25;94098.97;;;8.44;75.64
85386;BME280;75792;42.686;23.298;2024-03-02T01:47:50;94094.63;;;8.40;75.21
85386;BME280;75792;42.686;23.298;2024-03-02T01:50:24;94093.88;;;8.25;76.26
85386;BME280;75792;42.686;23.298;2024-03-02T01:52:50;94084.22;;;8.12;77.26
85386;BME280;75792;42.686;23.298;2024-03-02T01:55:15;94088.25;;;7.96;78.73
85386;BME280;75792;42.686;23.298;2024-03-02T01:57:41;94082.31;;;8.04;78.09
85386;BME280;75792;42.686;23.298;2024-03-02T02:00:07;94078.97;;;8.12;78.10
85386;BME280;75792;42.686;23.298;2024-03-02T02:02:32;94087.69;;;8.21;77.86
85386;BME280;75792;42.686;23.298;2024-03-02T02:04:58;94084.19;;;8.26;77.92
85386;BME280;75792;42.686;23.298;2024-03-02T02:07:23;94092.69;;;8.31;77.98
85386;BME280;75792;42.686;23.298;2024-03-02T02:09:48;94091.50;;;8.37;76.74
85386;BME280;75792;42.686;23.298;2024-03-02T02:12:14;94086.25;;;8.37;76.74
85386;BME280;75792;42.686;23.298;2024-03-02T02:14:47;94077.91;;;8.35;76.68
85386;BME280;75792;42.686;23.298;2024-03-02T02:17:12;94080.44;;;8.41;76.39
85386;BME280;75792;42.686;23.298;2024-03-02T02:19:40;94080.63;;;8.30;77.23
85386;BME280;75792;42.686;23.298;2024-03-02T02:22:06;94085.97;;;8.17;78.16
85386;BME280;75792;42.686;23.298;2024-03-02T02:24:31;94094.59;;;8.17;78.32
85386;BME280;75792;42.686;23.298;2024-03-02T02:26:56;94087.56;;;8.26;77.80
85386;BME280;75792;42.686;23.298;2024-03-02T02:29:22;94087.44;;;8.31;77.81
85386;BME280;75792;42.686;23.298;2024-03-02T02:31:47;94085.28;;;8.33;77.10
85386;BME280;75792;42.686;23.298;2024-03-02T02:34:14;94090.78;;;8.23;78.01
85386;BME280;75792;42.686;23.298;2024-03-02T02:36:40;94084.13;;;8.40;77.25
85386;BME280;75792;42.686;23.298;2024-03-02T02:39:08;94087.69;;;8.21;77.62
85386;BME280;75792;42.686;23.298;2024-03-02T02:41:36;94082.22;;;8.31;77.98
85386;BME280;75792;42.686;23.298;2024-03-02T02:44:01;94080.63;;;8.44;77.70
85386;BME280;75792;42.686;23.298;2024-03-02T02:46:26;94087.56;;;8.49;77.07
85386;BME280;75792;42.686;23.298;2024-03-02T02:48:52;94091.75;;;8.50;77.15
85386;BME280;75792;42.686;23.298;2024-03-02T02:51:18;94086.72;;;8.62;77.21
85386;BME280;75792;42.686;23.298;2024-03-02T02:53:43;94091.34;;;8.65;76.23
85386;BME280;75792;42.686;23.298;2024-03-02T02:56:09;94091.41;;;8.74;75.85
85386;BME280;75792;42.686;23.298;2024-03-02T02:58:35;94089.09;;;8.72;75.66
85386;BME280;75792;42.686;23.298;2024-03-02T03:01:00;94093.06;;;8.70;75.49
85386;BME280;75792;42.686;23.298;2024-03-02T03:03:26;94096.03;;;8.68;75.88
85386;BME280;75792;42.686;23.298;2024-03-02T03:05:51;94087.06;;;8.69;76.17
85386;BME280;75792;42.686;23.298;2024-03-02T03:08:17;94090.53;;;8.56;76.30
85386;BME280;75792;42.686;23.298;2024-03-02T03:10:42;94091.50;;;8.60;76.17
85386;BME280;75792;42.686;23.298;2024-03-02T03:13:07;94086.56;;;8.58;76.72
85386;BME280;75792;42.686;23.298;2024-03-02T03:15:36;94090.66;;;8.51;76.07
85386;BME280;75792;42.686;23.298;2024-03-02T03:18:03;94092.19;;;8.52;76.22
85386;BME280;75792;42.686;23.298;2024-03-02T03:20:29;94090.66;;;8.51;77.14
85386;BME280;75792;42.686;23.298;2024-03-02T03:22:55;94092.84;;;7.90;81.10
85386;BME280;75792;42.686;23.298;2024-03-02T03:25:20;94096.16;;;7.82;81.18
85386;BME280;75792;42.686;23.298;2024-03-02T03:27:46;94090.88;;;7.96;80.70
85386;BME280;75792;42.686;23.298;2024-03-02T03:30:11;94088.69;;;8.11;81.31
85386;BME280;75792;42.686;23.298;2024-03-02T03:32:37;94089.47;;;8.12;80.63
85386;BME280;75792;42.686;23.298;2024-03-02T03:35:03;94089.94;;;8.14;80.35
85386;BME280;75792;42.686;23.298;2024-03-02T03:37:29;94093.53;;;8.18;79.98
85386;BME280;75792;42.686;23.298;2024-03-02T03:40:04;94089.94;;;8.36;79.65
85386;BME280;75792;42.686;23.298;2024-03-02T03:42:35;94090.66;;;8.51;79.81
85386;BME280;75792;42.686;23.298;2024-03-02T03:45:01;94092.09;;;8.57;79.02
85386;BME280;75792;42.686;23.298;2024-03-02T03:47:26;94091.34;;;8.65;79.29
85386;BME280;75792;42.686;23.298;2024-03-02T03:49:51;94099.50;;;8.55;79.34
85386;BME280;75792;42.686;23.298;2024-03-02T03:52:17;94096.16;;;8.41;78.47
85386;BME280;75792;42.686;23.298;2024-03-02T03:54:42;94092.25;;;7.93;80.20
85386;BME280;75792;42.686;23.298;2024-03-02T03:57:08;94092.59;;;7.78;81.84
85386;BME280;75792;42.686;23.298;2024-03-02T03:59:33;94093.63;;;7.90;81.99
85386;BME280;75792;42.686;23.298;2024-03-02T04:01:59;94085.09;;;7.85;82.04
85386;BME280;75792;42.686;23.298;2024-03-02T04:04:24;94091.91;;;7.86;82.23
85386;BME280;75792;42.686;23.298;2024-03-02T04:06:50;94093.16;;;7.52;83.21
85386;BME280;75792;42.686;23.298;2024-03-02T04:09:15;94093.53;;;7.45;84.04
85386;BME280;75792;42.686;23.298;2024-03-02T04:11:40;94089.09;;;7.32;84.18
85386;BME280;75792;42.686;23.298;2024-03-02T04:14:06;94098.59;;;7.28;84.51
85386;BME280;75792;42.686;23.298;2024-03-02T04:16:31;94094.06;;;7.20;85.03
85386;BME280;75792;42.686;23.298;2024-03-02T04:18:57;94089.69;;;7.15;85.49
85386;BME280;75792;42.686;23.298;2024-03-02T04:21:22;94092.28;;;7.29;84.36
85386;BME280;75792;42.686;23.298;2024-03-02T04:23:47;94083.06;;;7.45;83.75
85386;BME280;75792;42.686;23.298;2024-03-02T04:26:13;94086.56;;;7.55;83.58
85386;BME280;75792;42.686;23.298;2024-03-02T04:28:40;94089.25;;;7.63;82.78
85386;BME280;75792;42.686;23.298;2024-03-02T04:31:05;94094.66;;;7.67;83.13
85386;BME280;75792;42.686;23.298;2024-03-02T04:33:30;94094.84;;;7.70;82.94
85386;BME280;75792;42.686;23.298;2024-03-02T04:35:56;94101.03;;;7.75;83.41
85386;BME280;75792;42.686;23.298;2024-03-02T04:38:22;94098.75;;;7.45;83.78
85386;BME280;75792;42.686;23.298;2024-03-02T04:40:48;94102.53;;;7.53;84.60
85386;BME280;75792;42.686;23.298;2024-03-02T04:43:13;94104.78;;;7.32;85.00
85386;BME280;75792;42.686;23.298;2024-03-02T04:45:41;94094.16;;;7.15;86.64
85386;BME280;75792;42.686;23.298;2024-03-02T04:48:07;94096.94;;;7.32;85.86
85386;BME280;75792;42.686;23.298;2024-03-02T04:50:33;94107.91;;;7.07;87.29
85386;BME280;75792;42.686;23.298;2024-03-02T04:52:58;94111.31;;;6.93;87.76
85386;BME280;75792;42.686;23.298;2024-03-02T04:55:23;94111.19;;;6.98;88.06
85386;BME280;75792;42.686;23.298;2024-03-02T04:58:14;94106.75;;;7.13;87.50
85386;BME280;75792;42.686;23.298;2024-03-02T05:00:40;94104.41;;;7.11;87.54
85386;BME280;75792;42.686;23.298;2024-03-02T05:03:05;94117.59;;;6.92;88.68
85386;BME280;75792;42.686;23.298;2024-03-02T05:05:31;94105.94;;;6.71;89.70
85386;BME280;75792;42.686;23.298;2024-03-02T05:07:56;94109.03;;;6.73;90.23
85386;BME280;75792;42.686;23.298;2024-03-02T05:10:21;94121.44;;;6.81;89.44
85386;BME280;75792;42.686;23.298;2024-03-02T05:12:47;94126.69;;;6.81;89.36
85386;BME280;75792;42.686;23.298;2024-03-02T05:15:13;94120.09;;;6.83;90.13
85386;BME280;75792;42.686;23.298;2024-03-02T05:17:40;94127.09;;;6.88;90.17
85386;BME280;75792;42.686;23.298;2024-03-02T05:20:07;94129.97;;;7.00;89.23
85386;BME280;75792;42.686;23.298;2024-03-02T05:22:33;94124.16;;;6.90;90.17
85386;BME280;75792;42.686;23.298;2024-03-02T05:24:59;94135.41;;;6.90;89.97
85386;BME280;75792;42.686;23.298;2024-03-02T05:27:26;94130.56;;;6.83;90.29
85386;BME280;75792;42.686;23.298;2024-03-02T05:29:52;94132.78;;;6.90;89.85
85386;BME280;75792;42.686;23.298;2024-03-02T05:32:17;94120.47;;;6.77;90.43
85386;BME280;75792;42.686;23.298;2024-03-02T05:34:42;94143.81;;;6.87;90.65
85386;BME280;75792;42.686;23.298;2024-03-02T05:37:08;94149.53;;;6.89;90.43
85386;BME280;75792;42.686;23.298;2024-03-02T05:39:33;94145.47;;;6.83;90.47
85386;BME280;75792;42.686;23.298;2024-03-02T05:41:59;94140.06;;;6.93;90.66
85386;BME280;75792;42.686;23.298;2024-03-02T05:44:24;94149.56;;;7.03;90.93
85386;BME280;75792;42.686;23.298;2024-03-02T05:46:50;94153.63;;;7.09;89.51
85386;BME280;75792;42.686;23.298;2024-03-02T05:49:15;94153.44;;;7.05;89.58
85386;BME280;75792;42.686;23.298;2024-03-02T05:51:40;94149.75;;;7.07;89.71
85386;BME280;75792;42.686;23.298;2024-03-02T05:54:06;94149.06;;;7.01;90.28
85386;BME280;75792;42.686;23.298;2024-03-02T05:56:32;94153.84;;;7.13;91.14
85386;BME280;75792;42.686;23.298;2024-03-02T05:58:58;94160.41;;;7.24;91.12
85386;BME280;75792;42.686;23.298;2024-03-02T06:04:04;94150.94;;;7.28;90.15
85386;BME280;75792;42.686;23.298;2024-03-02T06:06:30;94149.75;;;7.34;90.32
85386;BME280;75792;42.686;23.298;2024-03-02T06:08:55;94151.31;;;7.49;90.07
85386;BME280;75792;42.686;23.298;2024-03-02T06:11:21;94152.44;;;7.57;90.01
85386;BME280;75792;42.686;23.298;2024-03-02T06:13:47;94148.59;;;7.68;89.43
85386;BME280;75792;42.686;23.298;2024-03-02T06:16:12;94157.28;;;7.77;89.46
85386;BME280;75792;42.686;23.298;2024-03-02T06:18:38;94157.16;;;7.82;88.64
85386;BME280;75792;42.686;23.298;2024-03-02T06:21:03;94149.88;;;7.93;88.79
85386;BME280;75792;42.686;23.298;2024-03-02T06:23:29;94159.00;;;7.96;89.01
85386;BME280;75792;42.686;23.298;2024-03-02T06:25:54;94154.13;;;8.03;88.11
85386;BME280;75792;42.686;23.298;2024-03-02T06:28:20;94157.13;;;8.10;88.19
85386;BME280;75792;42.686;23.298;2024-03-02T06:30:46;94163.25;;;8.05;88.02
85386;BME280;75792;42.686;23.298;2024-03-02T06:33:11;94166.91;;;8.04;88.01
85386;BME280;75792;42.686;23.298;2024-03-02T06:35:36;94167.50;;;8.01;88.10
85386;BME280;75792;42.686;23.298;2024-03-02T06:38:02;94166.53;;;8.11;88.12
85386;BME280;75792;42.686;23.298;2024-03-02T06:40:27;94165.94;;;8.14;87.39
85386;BME280;75792;42.686;23.298;2024-03-02T06:42:53;94171.16;;;8.14;86.65
85386;BME280;75792;42.686;23.298;2024-03-02T06:45:19;94170.56;;;8.17;87.09
85386;BME280;75792;42.686;23.298;2024-03-02T06:47:44;94168.66;;;8.09;86.74
85386;BME280;75792;42.686;23.298;2024-03-02T06:50:10;94169.63;;;8.13;87.05
85386;BME280;75792;42.686;23.298;2024-03-02T06:52:35;94166.03;;;8.09;87.24
85386;BME280;75792;42.686;23.298;2024-03-02T06:55:01;94169.75;;;8.08;87.18
85386;BME280;75792;42.686;23.298;2024-03-02T06:57:26;94177.59;;;8.08;87.35
85386;BME280;75792;42.686;23.298;2024-03-02T06:59:52;94173.91;;;8.09;87.22
85386;BME280;75792;42.686;23.298;2024-03-02T07:02:20;94175.91;;;8.12;87.18
85386;BME280;75792;42.686;23.298;2024-03-02T07:04:46;94175.34;;;8.15;87.65
85386;BME280;75792;42.686;23.298;2024-03-02T07:07:12;94177.97;;;8.15;86.61
85386;BME280;75792;42.686;23.298;2024-03-02T07:09:37;94167.59;;;8.10;87.57
85386;BME280;75792;42.686;23.298;2024-03-02T07:12:03;94185.13;;;8.23;87.44
85386;BME280;75792;42.686;23.298;2024-03-02T07:14:28;94183.81;;;8.34;87.14
85386;BME280;75792;42.686;23.298;2024-03-02T07:17:14;94190.31;;;8.37;86.49
85386;BME280;75792;42.686;23.298;2024-03-02T07:19:39;94188.69;;;8.27;86.19
85386;BME280;75792;42.686;23.298;2024-03-02T07:22:08;94188.03;;;8.22;86.65
85386;BME280;75792;42.686;23.298;2024-03-02T07:24:39;94186.50;;;8.21;86.73
85386;BME280;75792;42.686;23.298;2024-03-02T07:27:06;94188.22;;;8.25;86.92
85386;BME280;75792;42.686;23.298;2024-03-02T07:29:31;94190.72;;;8.30;86.31
85386;BME280;75792;42.686;23.298;2024-03-02T07:31:57;94192.16;;;8.36;86.48
85386;BME280;75792;42.686;23.298;2024-03-02T07:34:22;94196.34;;;8.37;85.99
85386;BME280;75792;42.686;23.298;2024-03-02T07:36:47;94190.72;;;8.44;85.49
85386;BME280;75792;42.686;23.298;2024-03-02T07:39:13;94198.09;;;8.42;85.61
85386;BME280;75792;42.686;23.298;2024-03-02T07:41:38;94199.84;;;8.47;85.50
85386;BME280;75792;42.686;23.298;2024-03-02T07:44:03;94194.91;;;8.31;84.57
85386;BME280;75792;42.686;23.298;2024-03-02T07:46:29;94205.28;;;8.36;85.86
85386;BME280;75792;42.686;23.298;2024-03-02T07:48:54;94203.34;;;8.42;85.43
85386;BME280;75792;42.686;23.298;2024-03-02T07:51:20;94205.09;;;8.47;85.21
85386;BME280;75792;42.686;23.298;2024-03-02T07:53:45;94207.22;;;8.45;84.78
85386;BME280;75792;42.686;23.298;2024-03-02T07:56:11;94200.88;;;8.46;84.50
85386;BME280;75792;42.686;23.298;2024-03-02T07:58:36;94205.13;;;8.55;84.08
85386;BME280;75792;42.686;23.298;2024-03-02T08:01:02;94211.16;;;8.56;83.44
85386;BME280;75792;42.686;23.298;2024-03-02T08:03:27;94204.81;;;8.57;83.44
85386;BME280;75792;42.686;23.298;2024-03-02T08:05:53;94211.41;;;8.68;83.56
85386;BME280;75792;42.686;23.298;2024-03-02T08:08:18;94215.50;;;8.61;83.07
85386;BME280;75792;42.686;23.298;2024-03-02T08:10:44;94209.53;;;8.10;85.20
85386;BME280;75792;42.686;23.298;2024-03-02T08:13:09;94215.97;;;8.26;85.51
85386;BME280;75792;42.686;23.298;2024-03-02T08:15:34;94210.38;;;8.19;85.93
85386;BME280;75792;42.686;23.298;2024-03-02T08:18:01;94217.31;;;8.37;84.58
85386;BME280;75792;42.686;23.298;2024-03-02T08:20:26;94215.75;;;8.36;84.16
85386;BME280;75792;42.686;23.298;2024-03-02T08:22:52;94222.25;;;8.53;84.63
85386;BME280;75792;42.686;23.298;2024-03-02T08:25:20;94218.78;;;8.66;84.80
85386;BME280;75792;42.686;23.298;2024-03-02T08:27:45;94215.09;;;8.67;84.51
85386;BME280;75792;42.686;23.298;2024-03-02T08:30:11;94206.81;;;8.74;83.55
85386;BME280;75792;42.686;23.298;2024-03-02T08:32:37;94207.09;;;8.72;83.75
85386;BME280;75792;42.686;23.298;2024-03-02T08:35:03;94202.22;;;8.79;83.26
85386;BME280;75792;42.686;23.298;2024-03-02T08:37:29;94215.84;;;8.90;83.32
85386;BME280;75792;42.686;23.298;2024-03-02T08:39:54;94213.94;;;9.05;82.69
85386;BME280;75792;42.686;23.298;2024-03-02T08:42:19;94205.75;;;9.06;82.32
85386;BME280;75792;42.686;23.298;2024-03-02T08:44:45;94205.03;;;9.14;81.85
85386;BME280;75792;42.686;23.298;2024-03-02T08:47:10;94217.91;;;9.24;81.44
85386;BME280;75792;42.686;23.298;2024-03-02T08:49:36;94222.63;;;9.45;81.26
85386;BME280;75792;42.686;23.298;2024-03-02T08:52:01;94214.63;;;9.50;80.01
85386;BME280;75792;42.686;23.298;2024-03-02T08:54:27;94210.66;;;9.61;80.96
85386;BME280;75792;42.686;23.298;2024-03-02T08:56:53;94217.16;;;9.73;80.78
85386;BME280;75792;42.686;23.298;2024-03-02T08:59:19;94212.56;;;9.87;79.27
85386;BME280;75792;42.686;23.298;2024-03-02T09:01:44;94204.84;;;9.99;79.37
85386;BME280;75792;42.686;23.298;2024-03-02T09:04:10;94211.50;;;10.05;78.42
85386;BME280;75792;42.686;23.298;2024-03-02T09:06:36;94217.72;;;10.09;78.13
85386;BME280;75792;42.686;23.298;2024-03-02T09:09:02;94214.19;;;10.23;77.98
85386;BME280;75792;42.686;23.298;2024-03-02T09:11:28;94221.16;;;10.45;77.29
85386;BME280;75792;42.686;23.298;2024-03-02T09:13:54;94223.66;;;10.67;74.92
85386;BME280;75792;42.686;23.298;2024-03-02T09:16:21;94222.56;;;10.60;74.86
85386;BME280;75792;42.686;23.298;2024-03-02T09:18:47;94231.53;;;10.41;75.76
85386;BME280;75792;42.686;23.298;2024-03-02T09:21:12;94219.16;;;10.33;75.84
85386;BME280;75792;42.686;23.298;2024-03-02T09:23:38;94225.81;;;10.30;76.93
85386;BME280;75792;42.686;23.298;2024-03-02T09:26:05;94227.53;;;10.52;76.46
85386;BME280;75792;42.686;23.298;2024-03-02T09:28:31;94235.72;;;10.42;75.46
85386;BME280;75792;42.686;23.298;2024-03-02T09:30:57;94234.03;;;10.46;75.07
85386;BME280;75792;42.686;23.298;2024-03-02T09:33:23;94232.50;;;10.45;75.29
85386;BME280;75792;42.686;23.298;2024-03-02T09:35:48;94229.97;;;10.31;75.46
85386;BME280;75792;42.686;23.298;2024-03-02T09:38:14;94237.75;;;10.45;76.51
85386;BME280;75792;42.686;23.298;2024-03-02T09:40:41;94236.16;;;10.27;76.13
85386;BME280;75792;42.686;23.298;2024-03-02T09:43:08;94222.69;;;10.11;76.40
85386;BME280;75792;42.686;23.298;2024-03-02T09:45:34;94227.31;;;10.14;76.38
85386;BME280;75792;42.686;23.298;2024-03-02T09:48:00;94226.69;;;10.08;77.57
85386;BME280;75792;42.686;23.298;2024-03-02T09:50:26;94227.75;;;10.07;77.00
85386;BME280;75792;42.686;23.298;2024-03-02T09:52:52;94233.00;;;10.07;77.18
85386;BME280;75792;42.686;23.298;2024-03-02T09:55:18;94236.13;;;10.09;77.49
85386;BME280;75792;42.686;23.298;2024-03-02T09:57:45;94230.25;;;10.12;76.96
85386;BME280;75792;42.686;23.298;2024-03-02T10:00:11;94235.50;;;10.12;77.40
85386;BME280;75792;42.686;23.298;2024-03-02T10:02:43;94235.41;;;9.78;78.52
85386;BME280;75792;42.686;23.298;2024-03-02T10:05:09;94231.75;;;9.96;78.42
85386;BME280;75792;42.686;23.298;2024-03-02T10:07:35;94231.47;;;10.06;78.51
85386;BME280;75792;42.686;23.298;2024-03-02T10:10:13;94234.09;;;10.06;77.85
85386;BME280;75792;42.686;23.298;2024-03-02T10:12:40;94233.34;;;10.15;78.42
85386;BME280;75792;42.686;23.298;2024-03-02T10:15:06;94231.81;;;10.13;77.90
85386;BME280;75792;42.686;23.298;2024-03-02T10:17:33;94230.56;;;10.20;78.30
85386;BME280;75792;42.686;23.298;2024-03-02T10:19:58;94231.81;;;10.13;78.56
85386;BME280;75792;42.686;23.298;2024-03-02T10:22:26;94226.66;;;10.00;77.99
85386;BME280;75792;42.686;23.298;2024-03-02T10:24:54;94234.84;;;9.98;78.53
85386;BME280;75792;42.686;23.298;2024-03-02T10:27:25;94230.53;;;10.02;79.18
85386;BME280;75792;42.686;23.298;2024-03-02T10:29:51;94244.00;;;10.01;78.27
85386;BME280;75792;42.686;23.298;2024-03-02T10:32:17;94228.38;;;10.04;78.34
85386;BME280;75792;42.686;23.298;2024-03-02T10:34:45;94226.63;;;9.82;79.21
85386;BME280;75792;42.686;23.298;2024-03-02T10:37:11;94232.03;;;9.86;79.22
85386;BME280;75792;42.686;23.298;2024-03-02T10:39:38;94231.25;;;9.85;79.69
85386;BME280;75792;42.686;23.298;2024-03-02T10:42:07;94231.41;;;9.89;80.05
85386;BME280;75792;42.686;23.298;2024-03-02T10:44:34;94238.81;;;9.87;79.57
85386;BME280;75792;42.686;23.298;2024-03-02T10:47:02;94227.94;;;9.62;80.09
85386;BME280;75792;42.686;23.298;2024-03-02T10:49:32;94225.03;;;9.73;80.98
85386;BME280;75792;42.686;23.298;2024-03-02T10:52:01;94230.94;;;9.87;80.79
85386;BME280;75792;42.686;23.298;2024-03-02T10:54:27;94212.72;;;9.90;80.86
85386;BME280;75792;42.686;23.298;2024-03-02T10:57:01;94219.72;;;9.95;81.60
85386;BME280;75792;42.686;23.298;2024-03-02T10:59:36;94220.28;;;9.92;80.60
85386;BME280;75792;42.686;23.298;2024-03-02T11:02:03;94224.50;;;10.02;80.64
85386;BME280;75792;42.686;23.298;2024-03-02T11:04:31;94216.75;;;9.97;79.53
85386;BME280;75792;42.686;23.298;2024-03-02T11:07:08;94220.50;;;10.04;79.88
85386;BME280;75792;42.686;23.298;2024-03-02T11:09:38;94209.69;;;10.06;79.67
85386;BME280;75792;42.686;23.298;2024-03-02T11:15:10;94212.78;;;10.17;79.89
85386;BME280;75792;42.686;23.298;2024-03-02T11:17:36;94203.94;;;10.12;79.44
85386;BME280;75792;42.686;23.298;2024-03-02T11:20:03;94211.06;;;10.21;79.33
85386;BME280;75792;42.686;23.298;2024-03-02T11:22:29;94213.69;;;10.21;79.22
85386;BME280;75792;42.686;23.298;2024-03-02T11:24:55;94216.34;;;10.21;79.25
85386;BME280;75792;42.686;23.298;2024-03-02T11:33:02;94207.69;;;10.11;80.17
85386;BME280;75792;42.686;23.298;2024-03-02T11:35:38;94207.97;;;10.01;78.50
85386;BME280;75792;42.686;23.298;2024-03-02T11:38:09;94194.34;;;9.99;78.72
85386;BME280;75792;42.686;23.298;2024-03-02T11:40:35;94211.97;;;9.99;78.93
85386;BME280;75792;42.686;23.298;2024-03-02T11:43:00;94201.19;;;10.09;79.29
85386;BME280;75792;42.686;23.298;2024-03-02T11:45:27;94209.84;;;10.09;79.48
85386;BME280;75792;42.686;23.298;2024-03-02T11:47:59;94210.66;;;10.27;78.74
85386;BME280;75792;42.686;23.298;2024-03-02T11:50:50;94208.34;;;10.43;77.73
85386;BME280;75792;42.686;23.298;2024-03-02T11:53:16;94211.75;;;10.35;78.03
85386;BME280;75792;42.686;23.298;2024-03-02T11:55:42;94209.13;;;10.44;78.75
85386;BME280;75792;42.686;23.298;2024-03-02T11:58:14;94208.34;;;10.43;78.38
85386;BME280;75792;42.686;23.298;2024-03-02T12:00:43;94203.09;;;10.43;77.33
85386;BME280;75792;42.686;23.298;2024-03-02T12:03:12;94201.38;;;10.47;77.85
85386;BME280;75792;42.686;23.298;2024-03-02T12:05:37;94209.91;;;10.62;77.48
85386;BME280;75792;42.686;23.298;2024-03-02T12:08:05;94200.91;;;10.63;77.22
85386;BME280;75792;42.686;23.298;2024-03-02T12:10:32;94209.28;;;10.65;77.13
85386;BME280;75792;42.686;23.298;2024-03-02T12:13:01;94206.47;;;10.52;77.33
85386;BME280;75792;42.686;23.298;2024-03-02T12:15:29;94204.94;;;10.51;77.07
85386;BME280;75792;42.686;23.298;2024-03-02T12:17:56;94205.25;;;10.59;76.63
85386;BME280;75792;42.686;23.298;2024-03-02T12:20:22;94208.34;;;10.61;77.09
85386;BME280;75792;42.686;23.298;2024-03-02T12:22:50;94207.72;;;10.64;76.59
85386;BME280;75792;42.686;23.298;2024-03-02T12:25:17;94204.47;;;10.58;76.75
85386;BME280;75792;42.686;23.298;2024-03-02T12:27:43;94212.38;;;10.67;75.78
85386;BME280;75792;42.686;23.298;2024-03-02T12:30:09;94188.53;;;10.72;75.78
85386;BME280;75792;42.686;23.298;2024-03-02T12:32:37;94200.28;;;10.83;75.72
85386;BME280;75792;42.686;23.298;2024-03-02T12:35:04;94209.72;;;10.84;75.71
85386;BME280;75792;42.686;23.298;2024-03-02T12:37:30;94196.91;;;10.56;75.36
85386;BME280;75792;42.686;23.298;2024-03-02T12:39:55;94206.47;;;10.52;76.21
85386;BME280;75792;42.686;23.298;2024-03-02T12:42:21;94206.31;;;10.57;75.87
85386;BME280;75792;42.686;23.298;2024-03-02T12:44:46;94205.25;;;10.59;76.19
85386;BME280;75792;42.686;23.298;2024-03-02T12:47:12;94202.94;;;10.57;75.36
85386;BME280;75792;42.686;23.298;2024-03-02T12:49:40;94214.22;;;10.57;75.23
85386;BME280;75792;42.686;23.298;2024-03-02T12:52:06;94208.34;;;10.61;75.12
85386;BME280;75792;42.686;23.298;2024-03-02T12:54:32;94204.63;;;10.62;75.51
85386;BME280;75792;42.686;23.298;2024-03-02T12:56:58;94208.81;;;10.63;75.84
85386;BME280;75792;42.686;23.298;2024-03-02T12:59:24;94208.03;;;10.71;75.64
85386;BME280;75792;42.686;23.298;2024-03-02T13:01:55;94212.38;;;10.67;75.28
85386;BME280;75792;42.686;23.298;2024-03-02T13:04:27;94210.81;;;10.66;75.80